sensor_id;sensor_type;location;lat;lon;timestamp;P1;durP1;ratioP1;P2;durP2;ratioP2
52898;SDS011;38763;53.096;6.062;2023-01-26T00:00:43;89.32;;;23.10;;
52898;SDS011;38763;53.096;6.062;2023-01-26T00:03:09;98.00;;;24.58;;
52898;SDS011;38763;53.096;6.062;2023-01-26T00:05:37;102.47;;;23.35;;
52898;SDS011;38763;53.096;6.062;2023-01-26T00:08:03;101.75;;;23.75;;
52898;SDS011;38763;53.096;6.062;2023-01-26T00:10:29;95.32;;;24.35;;
52898;SDS011;38763;53.096;6.062;2023-01-26T00:12:55;104.22;;;25.73;;
52898;SDS011;38763;53.096;6.062;2023-01-26T00:15:21;90.93;;;24.67;;
52898;SDS011;38763;53.096;6.062;2023-01-26T00:17:47;108.90;;;24.60;;
52898;SDS011;38763;53.096;6.062;2023-01-26T00:20:15;92.38;;;24.98;;
52898;SDS011;38763;53.096;6.062;2023-01-26T00:22:41;97.38;;;24.95;;
52898;SDS011;38763;53.096;6.062;2023-01-26T00:25:07;112.80;;;24.77;;
52898;SDS011;38763;53.096;6.062;2023-01-26T00:27:33;95.18;;;24.85;;
52898;SDS011;38763;53.096;6.062;2023-01-26T00:29:59;93.20;;;22.83;;
52898;SDS011;38763;53.096;6.062;2023-01-26T00:32:24;112.32;;;25.63;;
52898;SDS011;38763;53.096;6.062;2023-01-26T00:34:50;105.03;;;24.95;;
52898;SDS011;38763;53.096;6.062;2023-01-26T00:37:15;95.53;;;23.95;;
52898;SDS011;38763;53.096;6.062;2023-01-26T00:39:41;89.45;;;22.55;;
52898;SDS011;38763;53.096;6.062;2023-01-26T00:42:07;102.22;;;24.48;;
52898;SDS011;38763;53.096;6.062;2023-01-26T00:44:39;109.90;;;25.35;;
52898;SDS011;38763;53.096;6.062;2023-01-26T00:47:06;106.53;;;25.10;;
52898;SDS011;38763;53.096;6.062;2023-01-26T00:49:33;95.32;;;22.48;;
52898;SDS011;38763;53.096;6.062;2023-01-26T00:51:59;128.10;;;25.27;;
52898;SDS011;38763;53.096;6.062;2023-01-26T00:54:25;103.70;;;24.80;;
52898;SDS011;38763;53.096;6.062;2023-01-26T00:56:51;108.65;;;25.00;;
52898;SDS011;38763;53.096;6.062;2023-01-26T00:59:17;94.53;;;23.88;;
52898;SDS011;38763;53.096;6.062;2023-01-26T01:01:43;118.30;;;26.45;;
52898;SDS011;38763;53.096;6.062;2023-01-26T01:04:08;111.38;;;24.77;;
52898;SDS011;38763;53.096;6.062;2023-01-26T01:06:34;102.13;;;24.88;;
52898;SDS011;38763;53.096;6.062;2023-01-26T01:09:00;103.50;;;24.50;;
52898;SDS011;38763;53.096;6.062;2023-01-26T01:11:26;115.13;;;25.67;;
52898;SDS011;38763;53.096;6.062;2023-01-26T01:13:51;99.45;;;23.95;;
52898;SDS011;38763;53.096;6.062;2023-01-26T01:16:17;107.50;;;25.35;;
52898;SDS011;38763;53.096;6.062;2023-01-26T01:18:43;101.20;;;23.80;;
52898;SDS011;38763;53.096;6.062;2023-01-26T01:21:09;112.55;;;23.90;;
52898;SDS011;38763;53.096;6.062;2023-01-26T01:23:37;99.90;;;23.05;;
52898;SDS011;38763;53.096;6.062;2023-01-26T01:26:03;99.35;;;24.42;;
52898;SDS011;38763;53.096;6.062;2023-01-26T01:28:30;88.57;;;23.38;;
52898;SDS011;38763;53.096;6.062;2023-01-26T01:30:56;99.10;;;22.92;;
52898;SDS011;38763;53.096;6.062;2023-01-26T01:33:22;115.30;;;23.88;;
52898;SDS011;38763;53.096;6.062;2023-01-26T01:35:58;106.00;;;23.75;;
52898;SDS011;38763;53.096;6.062;2023-01-26T01:38:25;92.43;;;22.70;;
52898;SDS011;38763;53.096;6.062;2023-01-26T01:40:52;97.70;;;24.75;;
52898;SDS011;38763;53.096;6.062;2023-01-26T01:43:18;92.95;;;22.88;;
52898;SDS011;38763;53.096;6.062;2023-01-26T01:45:47;97.93;;;24.83;;
52898;SDS011;38763;53.096;6.062;2023-01-26T01:50:46;103.40;;;23.40;;
52898;SDS011;38763;53.096;6.062;2023-01-26T01:53:16;93.75;;;22.75;;
52898;SDS011;38763;53.096;6.062;2023-01-26T01:55:56;95.45;;;23.45;;
52898;SDS011;38763;53.096;6.062;2023-01-26T01:58:24;85.22;;;22.63;;
52898;SDS011;38763;53.096;6.062;2023-01-26T02:00:51;94.57;;;22.63;;
52898;SDS011;38763;53.096;6.062;2023-01-26T02:03:17;97.20;;;22.95;;
52898;SDS011;38763;53.096;6.062;2023-01-26T02:08:17;107.68;;;24.35;;
52898;SDS011;38763;53.096;6.062;2023-01-26T02:10:45;108.82;;;24.08;;
52898;SDS011;38763;53.096;6.062;2023-01-26T02:13:14;111.78;;;25.55;;
52898;SDS011;38763;53.096;6.062;2023-01-26T02:15:41;112.88;;;23.92;;
52898;SDS011;38763;53.096;6.062;2023-01-26T02:18:07;93.28;;;22.90;;
52898;SDS011;38763;53.096;6.062;2023-01-26T02:20:51;91.68;;;23.23;;
52898;SDS011;38763;53.096;6.062;2023-01-26T02:23:28;108.15;;;24.02;;
52898;SDS011;38763;53.096;6.062;2023-01-26T02:26:01;88.57;;;22.50;;
52898;SDS011;38763;53.096;6.062;2023-01-26T02:28:33;96.78;;;22.92;;
52898;SDS011;38763;53.096;6.062;2023-01-26T02:30:58;112.88;;;23.27;;
52898;SDS011;38763;53.096;6.062;2023-01-26T02:33:26;103.88;;;23.83;;
52898;SDS011;38763;53.096;6.062;2023-01-26T02:35:53;87.50;;;23.25;;
52898;SDS011;38763;53.096;6.062;2023-01-26T02:38:19;123.82;;;25.35;;
52898;SDS011;38763;53.096;6.062;2023-01-26T02:44:03;104.45;;;23.95;;
52898;SDS011;38763;53.096;6.062;2023-01-26T02:46:31;102.78;;;23.35;;
52898;SDS011;38763;53.096;6.062;2023-01-26T02:48:57;99.07;;;23.83;;
52898;SDS011;38763;53.096;6.062;2023-01-26T02:51:41;104.07;;;23.95;;
52898;SDS011;38763;53.096;6.062;2023-01-26T02:54:06;126.43;;;26.08;;
52898;SDS011;38763;53.096;6.062;2023-01-26T02:56:32;111.88;;;24.17;;
52898;SDS011;38763;53.096;6.062;2023-01-26T02:58:57;102.18;;;25.33;;
52898;SDS011;38763;53.096;6.062;2023-01-26T03:01:23;86.63;;;23.52;;
52898;SDS011;38763;53.096;6.062;2023-01-26T03:03:49;111.82;;;25.67;;
52898;SDS011;38763;53.096;6.062;2023-01-26T03:06:14;99.22;;;23.02;;
52898;SDS011;38763;53.096;6.062;2023-01-26T03:08:40;113.22;;;24.10;;
52898;SDS011;38763;53.096;6.062;2023-01-26T03:11:06;99.53;;;23.20;;
52898;SDS011;38763;53.096;6.062;2023-01-26T03:13:32;101.55;;;24.38;;
52898;SDS011;38763;53.096;6.062;2023-01-26T03:15:58;105.97;;;23.08;;
52898;SDS011;38763;53.096;6.062;2023-01-26T03:18:31;126.23;;;25.50;;
52898;SDS011;38763;53.096;6.062;2023-01-26T03:21:17;93.85;;;22.80;;
52898;SDS011;38763;53.096;6.062;2023-01-26T03:24:01;91.68;;;22.77;;
52898;SDS011;38763;53.096;6.062;2023-01-26T03:26:46;97.93;;;23.50;;
52898;SDS011;38763;53.096;6.062;2023-01-26T03:29:31;83.30;;;22.73;;
52898;SDS011;38763;53.096;6.062;2023-01-26T03:31:57;100.45;;;23.20;;
52898;SDS011;38763;53.096;6.062;2023-01-26T03:34:26;109.78;;;25.67;;
52898;SDS011;38763;53.096;6.062;2023-01-26T03:36:53;113.90;;;24.02;;
52898;SDS011;38763;53.096;6.062;2023-01-26T03:39:19;122.20;;;25.15;;
52898;SDS011;38763;53.096;6.062;2023-01-26T03:42:04;104.20;;;24.55;;
52898;SDS011;38763;53.096;6.062;2023-01-26T03:44:48;118.28;;;25.15;;
52898;SDS011;38763;53.096;6.062;2023-01-26T03:47:33;106.38;;;23.42;;
52898;SDS011;38763;53.096;6.062;2023-01-26T03:50:18;114.05;;;25.00;;
52898;SDS011;38763;53.096;6.062;2023-01-26T03:53:10;100.57;;;23.33;;
52898;SDS011;38763;53.096;6.062;2023-01-26T03:55:55;90.30;;;22.92;;
52898;SDS011;38763;53.096;6.062;2023-01-26T03:58:39;113.43;;;24.92;;
52898;SDS011;38763;53.096;6.062;2023-01-26T04:01:05;105.70;;;24.80;;
52898;SDS011;38763;53.096;6.062;2023-01-26T04:03:34;103.65;;;23.67;;
52898;SDS011;38763;53.096;6.062;2023-01-26T04:06:19;117.60;;;24.85;;
52898;SDS011;38763;53.096;6.062;2023-01-26T04:09:03;96.60;;;23.02;;
52898;SDS011;38763;53.096;6.062;2023-01-26T04:11:29;91.43;;;24.45;;
52898;SDS011;38763;53.096;6.062;2023-01-26T04:13:54;103.53;;;24.60;;
52898;SDS011;38763;53.096;6.062;2023-01-26T04:16:39;130.52;;;24.23;;
52898;SDS011;38763;53.096;6.062;2023-01-26T04:19:23;111.15;;;23.77;;
52898;SDS011;38763;53.096;6.062;2023-01-26T04:22:07;98.35;;;23.92;;
52898;SDS011;38763;53.096;6.062;2023-01-26T04:24:33;98.20;;;22.85;;
52898;SDS011;38763;53.096;6.062;2023-01-26T04:26:58;97.18;;;23.83;;
52898;SDS011;38763;53.096;6.062;2023-01-26T04:29:24;113.90;;;24.67;;
52898;SDS011;38763;53.096;6.062;2023-01-26T04:31:50;118.35;;;25.40;;
52898;SDS011;38763;53.096;6.062;2023-01-26T04:34:15;97.85;;;23.25;;
52898;SDS011;38763;53.096;6.062;2023-01-26T04:36:41;130.05;;;25.88;;
52898;SDS011;38763;53.096;6.062;2023-01-26T04:39:08;136.43;;;25.70;;
52898;SDS011;38763;53.096;6.062;2023-01-26T04:41:33;89.18;;;22.65;;
52898;SDS011;38763;53.096;6.062;2023-01-26T04:43:59;111.57;;;24.63;;
52898;SDS011;38763;53.096;6.062;2023-01-26T04:46:25;126.72;;;24.48;;
52898;SDS011;38763;53.096;6.062;2023-01-26T04:48:51;90.78;;;24.13;;
52898;SDS011;38763;53.096;6.062;2023-01-26T04:51:17;117.63;;;24.23;;
52898;SDS011;38763;53.096;6.062;2023-01-26T04:53:45;116.25;;;23.65;;
52898;SDS011;38763;53.096;6.062;2023-01-26T04:56:24;104.78;;;22.65;;
52898;SDS011;38763;53.096;6.062;2023-01-26T04:58:57;105.68;;;23.77;;
52898;SDS011;38763;53.096;6.062;2023-01-26T05:01:24;122.72;;;24.50;;
52898;SDS011;38763;53.096;6.062;2023-01-26T05:03:50;103.07;;;22.58;;
52898;SDS011;38763;53.096;6.062;2023-01-26T05:06:16;92.80;;;22.38;;
52898;SDS011;38763;53.096;6.062;2023-01-26T05:08:42;84.10;;;21.13;;
52898;SDS011;38763;53.096;6.062;2023-01-26T05:11:08;95.47;;;21.52;;
52898;SDS011;38763;53.096;6.062;2023-01-26T05:13:34;88.82;;;21.15;;
52898;SDS011;38763;53.096;6.062;2023-01-26T05:16:00;84.85;;;21.33;;
52898;SDS011;38763;53.096;6.062;2023-01-26T05:18:27;86.55;;;19.92;;
52898;SDS011;38763;53.096;6.062;2023-01-26T05:20:53;80.60;;;20.67;;
52898;SDS011;38763;53.096;6.062;2023-01-26T05:23:19;95.55;;;22.33;;
52898;SDS011;38763;53.096;6.062;2023-01-26T05:25:44;129.82;;;22.63;;
52898;SDS011;38763;53.096;6.062;2023-01-26T05:28:10;81.75;;;20.33;;
52898;SDS011;38763;53.096;6.062;2023-01-26T05:30:36;61.08;;;18.58;;
52898;SDS011;38763;53.096;6.062;2023-01-26T05:33:02;86.68;;;21.02;;
52898;SDS011;38763;53.096;6.062;2023-01-26T05:35:29;99.57;;;20.50;;
52898;SDS011;38763;53.096;6.062;2023-01-26T05:37:54;82.32;;;19.85;;
52898;SDS011;38763;53.096;6.062;2023-01-26T05:40:20;84.88;;;20.70;;
52898;SDS011;38763;53.096;6.062;2023-01-26T05:42:46;88.85;;;20.52;;
52898;SDS011;38763;53.096;6.062;2023-01-26T05:45:12;105.25;;;21.30;;
52898;SDS011;38763;53.096;6.062;2023-01-26T05:47:38;85.95;;;19.35;;
52898;SDS011;38763;53.096;6.062;2023-01-26T05:50:03;79.65;;;18.75;;
52898;SDS011;38763;53.096;6.062;2023-01-26T05:52:30;74.72;;;17.98;;
52898;SDS011;38763;53.096;6.062;2023-01-26T05:54:55;74.80;;;17.80;;
52898;SDS011;38763;53.096;6.062;2023-01-26T05:57:21;63.38;;;18.45;;
52898;SDS011;38763;53.096;6.062;2023-01-26T05:59:47;66.43;;;16.10;;
52898;SDS011;38763;53.096;6.062;2023-01-26T06:02:12;70.22;;;16.98;;
52898;SDS011;38763;53.096;6.062;2023-01-26T06:04:38;68.88;;;16.05;;
52898;SDS011;38763;53.096;6.062;2023-01-26T06:07:04;85.88;;;16.92;;
52898;SDS011;38763;53.096;6.062;2023-01-26T06:09:30;71.60;;;12.30;;
52898;SDS011;38763;53.096;6.062;2023-01-26T06:11:55;60.63;;;12.85;;
52898;SDS011;38763;53.096;6.062;2023-01-26T06:14:21;60.22;;;10.40;;
52898;SDS011;38763;53.096;6.062;2023-01-26T06:16:47;64.60;;;10.55;;
52898;SDS011;38763;53.096;6.062;2023-01-26T06:19:13;65.50;;;9.20;;
52898;SDS011;38763;53.096;6.062;2023-01-26T06:21:38;56.95;;;8.07;;
52898;SDS011;38763;53.096;6.062;2023-01-26T06:24:04;55.83;;;8.98;;
52898;SDS011;38763;53.096;6.062;2023-01-26T06:26:30;61.33;;;8.20;;
52898;SDS011;38763;53.096;6.062;2023-01-26T06:28:56;40.97;;;7.43;;
52898;SDS011;38763;53.096;6.062;2023-01-26T06:31:21;60.42;;;7.93;;
52898;SDS011;38763;53.096;6.062;2023-01-26T06:33:48;40.95;;;7.00;;
52898;SDS011;38763;53.096;6.062;2023-01-26T06:36:15;52.38;;;7.00;;
52898;SDS011;38763;53.096;6.062;2023-01-26T06:38:45;53.05;;;7.88;;
52898;SDS011;38763;53.096;6.062;2023-01-26T06:41:12;61.30;;;8.48;;
52898;SDS011;38763;53.096;6.062;2023-01-26T06:43:38;52.22;;;7.60;;
52898;SDS011;38763;53.096;6.062;2023-01-26T06:46:08;53.17;;;7.88;;
52898;SDS011;38763;53.096;6.062;2023-01-26T06:48:33;48.05;;;6.90;;
52898;SDS011;38763;53.096;6.062;2023-01-26T06:53:50;53.13;;;7.53;;
52898;SDS011;38763;53.096;6.062;2023-01-26T06:56:23;56.53;;;6.95;;
52898;SDS011;38763;53.096;6.062;2023-01-26T06:58:49;55.67;;;6.38;;
52898;SDS011;38763;53.096;6.062;2023-01-26T07:01:15;52.75;;;6.47;;
52898;SDS011;38763;53.096;6.062;2023-01-26T07:03:44;61.72;;;6.43;;
52898;SDS011;38763;53.096;6.062;2023-01-26T07:06:11;59.97;;;6.25;;
52898;SDS011;38763;53.096;6.062;2023-01-26T07:08:37;53.17;;;6.78;;
52898;SDS011;38763;53.096;6.062;2023-01-26T07:11:03;53.95;;;6.72;;
52898;SDS011;38763;53.096;6.062;2023-01-26T07:13:29;63.90;;;8.00;;
52898;SDS011;38763;53.096;6.062;2023-01-26T07:18:36;60.03;;;8.60;;
52898;SDS011;38763;53.096;6.062;2023-01-26T07:21:02;47.00;;;8.80;;
52898;SDS011;38763;53.096;6.062;2023-01-26T07:23:29;56.30;;;9.45;;
52898;SDS011;38763;53.096;6.062;2023-01-26T07:25:55;56.67;;;8.90;;
52898;SDS011;38763;53.096;6.062;2023-01-26T07:28:21;63.28;;;9.50;;
52898;SDS011;38763;53.096;6.062;2023-01-26T07:30:47;68.80;;;10.77;;
52898;SDS011;38763;53.096;6.062;2023-01-26T07:33:13;61.22;;;8.68;;
52898;SDS011;38763;53.096;6.062;2023-01-26T07:35:39;48.88;;;9.13;;
52898;SDS011;38763;53.096;6.062;2023-01-26T07:38:05;69.82;;;8.70;;
52898;SDS011;38763;53.096;6.062;2023-01-26T07:40:31;51.65;;;10.52;;
52898;SDS011;38763;53.096;6.062;2023-01-26T07:42:58;54.72;;;9.52;;
52898;SDS011;38763;53.096;6.062;2023-01-26T07:45:24;63.90;;;9.13;;
52898;SDS011;38763;53.096;6.062;2023-01-26T07:47:50;47.33;;;7.72;;
52898;SDS011;38763;53.096;6.062;2023-01-26T07:50:18;53.28;;;8.43;;
52898;SDS011;38763;53.096;6.062;2023-01-26T07:52:45;62.55;;;7.93;;
52898;SDS011;38763;53.096;6.062;2023-01-26T07:55:11;43.50;;;8.48;;
52898;SDS011;38763;53.096;6.062;2023-01-26T07:57:38;57.88;;;8.13;;
52898;SDS011;38763;53.096;6.062;2023-01-26T08:00:04;61.42;;;8.23;;
52898;SDS011;38763;53.096;6.062;2023-01-26T08:02:30;58.60;;;8.82;;
52898;SDS011;38763;53.096;6.062;2023-01-26T08:04:56;41.13;;;6.45;;
52898;SDS011;38763;53.096;6.062;2023-01-26T08:07:21;59.50;;;7.53;;
52898;SDS011;38763;53.096;6.062;2023-01-26T08:09:47;46.35;;;7.03;;
52898;SDS011;38763;53.096;6.062;2023-01-26T08:12:12;45.55;;;5.75;;
52898;SDS011;38763;53.096;6.062;2023-01-26T08:14:38;47.25;;;5.78;;
52898;SDS011;38763;53.096;6.062;2023-01-26T08:17:03;54.13;;;5.93;;
52898;SDS011;38763;53.096;6.062;2023-01-26T08:19:29;56.72;;;6.10;;
52898;SDS011;38763;53.096;6.062;2023-01-26T08:21:55;40.42;;;6.90;;
52898;SDS011;38763;53.096;6.062;2023-01-26T08:24:21;47.45;;;6.07;;
52898;SDS011;38763;53.096;6.062;2023-01-26T08:26:47;52.15;;;7.13;;
52898;SDS011;38763;53.096;6.062;2023-01-26T08:29:13;55.17;;;7.25;;
52898;SDS011;38763;53.096;6.062;2023-01-26T08:31:39;64.72;;;7.63;;
52898;SDS011;38763;53.096;6.062;2023-01-26T08:34:04;49.30;;;7.03;;
52898;SDS011;38763;53.096;6.062;2023-01-26T08:36:30;43.90;;;6.93;;
52898;SDS011;38763;53.096;6.062;2023-01-26T08:38:55;52.42;;;8.57;;
52898;SDS011;38763;53.096;6.062;2023-01-26T08:41:21;52.28;;;7.90;;
52898;SDS011;38763;53.096;6.062;2023-01-26T08:43:47;53.53;;;8.77;;
52898;SDS011;38763;53.096;6.062;2023-01-26T08:46:13;51.83;;;7.45;;
52898;SDS011;38763;53.096;6.062;2023-01-26T08:48:39;49.85;;;7.50;;
52898;SDS011;38763;53.096;6.062;2023-01-26T08:51:05;39.05;;;7.45;;
52898;SDS011;38763;53.096;6.062;2023-01-26T08:53:32;47.40;;;6.78;;
52898;SDS011;38763;53.096;6.062;2023-01-26T08:56:00;53.47;;;6.78;;
52898;SDS011;38763;53.096;6.062;2023-01-26T08:58:26;49.42;;;6.47;;
52898;SDS011;38763;53.096;6.062;2023-01-26T09:00:52;50.58;;;6.50;;
52898;SDS011;38763;53.096;6.062;2023-01-26T09:03:18;34.45;;;5.78;;
52898;SDS011;38763;53.096;6.062;2023-01-26T09:05:44;49.13;;;5.95;;
52898;SDS011;38763;53.096;6.062;2023-01-26T09:08:09;57.08;;;7.03;;
52898;SDS011;38763;53.096;6.062;2023-01-26T09:10:36;52.80;;;6.47;;
52898;SDS011;38763;53.096;6.062;2023-01-26T09:13:02;44.13;;;6.05;;
52898;SDS011;38763;53.096;6.062;2023-01-26T09:15:28;36.08;;;5.93;;
52898;SDS011;38763;53.096;6.062;2023-01-26T09:17:53;41.70;;;5.95;;
52898;SDS011;38763;53.096;6.062;2023-01-26T09:20:19;35.15;;;5.63;;
52898;SDS011;38763;53.096;6.062;2023-01-26T09:22:45;38.55;;;5.15;;
52898;SDS011;38763;53.096;6.062;2023-01-26T09:25:11;33.88;;;5.47;;
52898;SDS011;38763;53.096;6.062;2023-01-26T09:27:37;47.90;;;7.43;;
52898;SDS011;38763;53.096;6.062;2023-01-26T09:30:03;46.40;;;5.75;;
52898;SDS011;38763;53.096;6.062;2023-01-26T09:32:30;46.90;;;5.97;;
52898;SDS011;38763;53.096;6.062;2023-01-26T09:34:56;36.13;;;5.88;;
52898;SDS011;38763;53.096;6.062;2023-01-26T09:37:21;46.00;;;5.90;;
52898;SDS011;38763;53.096;6.062;2023-01-26T09:39:47;36.10;;;5.72;;
52898;SDS011;38763;53.096;6.062;2023-01-26T09:50:27;38.15;;;4.55;;
52898;SDS011;38763;53.096;6.062;2023-01-26T09:53:01;41.40;;;5.10;;
52898;SDS011;38763;53.096;6.062;2023-01-26T09:55:36;30.88;;;4.18;;
52898;SDS011;38763;53.096;6.062;2023-01-26T09:58:05;32.45;;;3.90;;
52898;SDS011;38763;53.096;6.062;2023-01-26T10:00:47;45.30;;;4.72;;
52898;SDS011;38763;53.096;6.062;2023-01-26T10:03:22;35.92;;;4.88;;
52898;SDS011;38763;53.096;6.062;2023-01-26T10:06:06;33.55;;;4.90;;
52898;SDS011;38763;53.096;6.062;2023-01-26T10:08:45;31.00;;;4.65;;
52898;SDS011;38763;53.096;6.062;2023-01-26T10:11:20;32.08;;;4.85;;
52898;SDS011;38763;53.096;6.062;2023-01-26T10:16:50;22.42;;;4.28;;
52898;SDS011;38763;53.096;6.062;2023-01-26T10:21:59;29.15;;;4.10;;
52898;SDS011;38763;53.096;6.062;2023-01-26T10:24:29;31.65;;;4.57;;
52898;SDS011;38763;53.096;6.062;2023-01-26T10:26:57;27.35;;;4.60;;
52898;SDS011;38763;53.096;6.062;2023-01-26T10:29:24;27.27;;;4.75;;
52898;SDS011;38763;53.096;6.062;2023-01-26T10:31:49;28.85;;;4.40;;
52898;SDS011;38763;53.096;6.062;2023-01-26T10:34:25;23.90;;;4.60;;
52898;SDS011;38763;53.096;6.062;2023-01-26T10:36:52;29.38;;;4.57;;
52898;SDS011;38763;53.096;6.062;2023-01-26T10:39:36;28.02;;;4.70;;
52898;SDS011;38763;53.096;6.062;2023-01-26T10:42:20;30.60;;;5.07;;
52898;SDS011;38763;53.096;6.062;2023-01-26T10:44:46;31.08;;;4.88;;
52898;SDS011;38763;53.096;6.062;2023-01-26T10:49:41;26.10;;;5.00;;
52898;SDS011;38763;53.096;6.062;2023-01-26T10:52:13;23.70;;;5.25;;
52898;SDS011;38763;53.096;6.062;2023-01-26T10:54:45;28.85;;;4.68;;
52898;SDS011;38763;53.096;6.062;2023-01-26T10:57:25;24.50;;;4.70;;
52898;SDS011;38763;53.096;6.062;2023-01-26T10:59:54;20.17;;;4.55;;
52898;SDS011;38763;53.096;6.062;2023-01-26T11:02:28;29.65;;;5.00;;
52898;SDS011;38763;53.096;6.062;2023-01-26T11:10:15;27.98;;;5.13;;
52898;SDS011;38763;53.096;6.062;2023-01-26T11:12:44;15.25;;;4.35;;
52898;SDS011;38763;53.096;6.062;2023-01-26T11:15:17;14.98;;;4.25;;
52898;SDS011;38763;53.096;6.062;2023-01-26T11:17:56;18.90;;;4.60;;
52898;SDS011;38763;53.096;6.062;2023-01-26T11:25:34;12.18;;;4.78;;
52898;SDS011;38763;53.096;6.062;2023-01-26T11:28:30;15.85;;;4.45;;
52898;SDS011;38763;53.096;6.062;2023-01-26T11:33:31;17.33;;;4.90;;
52898;SDS011;38763;53.096;6.062;2023-01-26T11:50:56;17.52;;;4.55;;
52898;SDS011;38763;53.096;6.062;2023-01-26T11:56:48;23.42;;;5.13;;
52898;SDS011;38763;53.096;6.062;2023-01-26T11:59:47;19.63;;;6.07;;
52898;SDS011;38763;53.096;6.062;2023-01-26T12:02:23;28.63;;;6.00;;
52898;SDS011;38763;53.096;6.062;2023-01-26T12:04:55;21.70;;;5.93;;
52898;SDS011;38763;53.096;6.062;2023-01-26T12:07:32;20.75;;;6.28;;
52898;SDS011;38763;53.096;6.062;2023-01-26T12:10:20;20.65;;;6.57;;
52898;SDS011;38763;53.096;6.062;2023-01-26T12:13:04;26.38;;;7.13;;
52898;SDS011;38763;53.096;6.062;2023-01-26T12:15:38;27.17;;;6.90;;
52898;SDS011;38763;53.096;6.062;2023-01-26T12:18:16;20.52;;;6.68;;
52898;SDS011;38763;53.096;6.062;2023-01-26T12:20:53;19.85;;;6.45;;
52898;SDS011;38763;53.096;6.062;2023-01-26T12:26:25;20.30;;;7.07;;
52898;SDS011;38763;53.096;6.062;2023-01-26T12:29:05;20.33;;;7.30;;
52898;SDS011;38763;53.096;6.062;2023-01-26T12:32:04;21.27;;;7.43;;
52898;SDS011;38763;53.096;6.062;2023-01-26T12:40:13;18.55;;;6.95;;
52898;SDS011;38763;53.096;6.062;2023-01-26T12:45:42;17.23;;;8.05;;
52898;SDS011;38763;53.096;6.062;2023-01-26T12:51:00;18.33;;;7.50;;
52898;SDS011;38763;53.096;6.062;2023-01-26T12:53:34;17.38;;;8.43;;
52898;SDS011;38763;53.096;6.062;2023-01-26T12:56:10;23.67;;;8.27;;
52898;SDS011;38763;53.096;6.062;2023-01-26T12:58:43;24.02;;;8.13;;
52898;SDS011;38763;53.096;6.062;2023-01-26T13:01:16;18.35;;;7.90;;
52898;SDS011;38763;53.096;6.062;2023-01-26T13:03:49;18.20;;;7.20;;
52898;SDS011;38763;53.096;6.062;2023-01-26T13:06:19;18.90;;;6.75;;
52898;SDS011;38763;53.096;6.062;2023-01-26T13:08:51;18.45;;;7.20;;
52898;SDS011;38763;53.096;6.062;2023-01-26T13:16:55;16.55;;;6.53;;
52898;SDS011;38763;53.096;6.062;2023-01-26T13:24:46;17.85;;;7.10;;
52898;SDS011;38763;53.096;6.062;2023-01-26T13:30:00;19.38;;;6.82;;
52898;SDS011;38763;53.096;6.062;2023-01-26T13:34:53;14.20;;;5.50;;
52898;SDS011;38763;53.096;6.062;2023-01-26T13:37:30;12.07;;;4.45;;
52898;SDS011;38763;53.096;6.062;2023-01-26T13:40:21;16.10;;;5.18;;
52898;SDS011;38763;53.096;6.062;2023-01-26T13:45:44;15.75;;;5.07;;
52898;SDS011;38763;53.096;6.062;2023-01-26T13:48:15;22.35;;;5.38;;
52898;SDS011;38763;53.096;6.062;2023-01-26T13:50:49;14.95;;;6.00;;
52898;SDS011;38763;53.096;6.062;2023-01-26T13:56:03;19.58;;;5.00;;
52898;SDS011;38763;53.096;6.062;2023-01-26T13:58:31;13.82;;;4.88;;
52898;SDS011;38763;53.096;6.062;2023-01-26T14:00:57;14.35;;;4.63;;
52898;SDS011;38763;53.096;6.062;2023-01-26T14:03:23;14.00;;;4.75;;
52898;SDS011;38763;53.096;6.062;2023-01-26T14:05:56;16.80;;;5.10;;
52898;SDS011;38763;53.096;6.062;2023-01-26T14:08:25;18.95;;;4.80;;
52898;SDS011;38763;53.096;6.062;2023-01-26T14:10:52;19.67;;;4.65;;
52898;SDS011;38763;53.096;6.062;2023-01-26T14:13:19;12.80;;;4.65;;
52898;SDS011;38763;53.096;6.062;2023-01-26T14:15:55;16.67;;;5.10;;
52898;SDS011;38763;53.096;6.062;2023-01-26T14:18:23;20.52;;;5.45;;
52898;SDS011;38763;53.096;6.062;2023-01-26T14:20:56;11.93;;;4.68;;
52898;SDS011;38763;53.096;6.062;2023-01-26T14:23:29;11.13;;;4.68;;
52898;SDS011;38763;53.096;6.062;2023-01-26T14:26:03;15.90;;;4.60;;
52898;SDS011;38763;53.096;6.062;2023-01-26T14:28:48;13.82;;;4.28;;
52898;SDS011;38763;53.096;6.062;2023-01-26T14:31:19;21.98;;;4.45;;
52898;SDS011;38763;53.096;6.062;2023-01-26T14:33:48;11.23;;;4.10;;
52898;SDS011;38763;53.096;6.062;2023-01-26T14:36:17;11.82;;;4.65;;
52898;SDS011;38763;53.096;6.062;2023-01-26T14:38:45;16.30;;;4.32;;
52898;SDS011;38763;53.096;6.062;2023-01-26T14:43:52;12.43;;;4.18;;
52898;SDS011;38763;53.096;6.062;2023-01-26T14:46:45;16.67;;;5.10;;
52898;SDS011;38763;53.096;6.062;2023-01-26T14:49:08;15.75;;;4.18;;
52898;SDS011;38763;53.096;6.062;2023-01-26T14:51:38;13.18;;;4.22;;
52898;SDS011;38763;53.096;6.062;2023-01-26T14:54:21;12.90;;;4.20;;
52898;SDS011;38763;53.096;6.062;2023-01-26T14:56:52;19.48;;;4.65;;
52898;SDS011;38763;53.096;6.062;2023-01-26T14:59:22;16.33;;;4.25;;
52898;SDS011;38763;53.096;6.062;2023-01-26T15:02:01;16.05;;;4.75;;
52898;SDS011;38763;53.096;6.062;2023-01-26T15:04:34;16.50;;;5.13;;
52898;SDS011;38763;53.096;6.062;2023-01-26T15:07:19;15.55;;;4.60;;
52898;SDS011;38763;53.096;6.062;2023-01-26T15:09:50;20.25;;;5.03;;
52898;SDS011;38763;53.096;6.062;2023-01-26T15:12:17;17.23;;;4.30;;
52898;SDS011;38763;53.096;6.062;2023-01-26T15:14:55;27.67;;;4.93;;
52898;SDS011;38763;53.096;6.062;2023-01-26T15:19:54;15.68;;;4.50;;
52898;SDS011;38763;53.096;6.062;2023-01-26T15:22:21;24.65;;;4.95;;
52898;SDS011;38763;53.096;6.062;2023-01-26T15:24:59;17.73;;;4.82;;
52898;SDS011;38763;53.096;6.062;2023-01-26T15:27:34;22.05;;;5.03;;
52898;SDS011;38763;53.096;6.062;2023-01-26T15:30:01;20.95;;;4.95;;
52898;SDS011;38763;53.096;6.062;2023-01-26T15:32:35;13.70;;;4.50;;
52898;SDS011;38763;53.096;6.062;2023-01-26T15:35:13;16.33;;;4.53;;
52898;SDS011;38763;53.096;6.062;2023-01-26T15:37:44;19.23;;;5.35;;
52898;SDS011;38763;53.096;6.062;2023-01-26T15:40:10;17.48;;;4.65;;
52898;SDS011;38763;53.096;6.062;2023-01-26T15:42:36;28.60;;;6.15;;
52898;SDS011;38763;53.096;6.062;2023-01-26T15:45:02;16.55;;;4.90;;
52898;SDS011;38763;53.096;6.062;2023-01-26T15:47:36;16.27;;;4.60;;
52898;SDS011;38763;53.096;6.062;2023-01-26T15:50:02;22.25;;;5.63;;
52898;SDS011;38763;53.096;6.062;2023-01-26T15:52:27;18.80;;;5.38;;
52898;SDS011;38763;53.096;6.062;2023-01-26T15:54:54;22.23;;;5.22;;
52898;SDS011;38763;53.096;6.062;2023-01-26T15:57:20;24.48;;;5.28;;
52898;SDS011;38763;53.096;6.062;2023-01-26T15:59:45;16.83;;;5.10;;
52898;SDS011;38763;53.096;6.062;2023-01-26T16:02:12;20.88;;;4.97;;
52898;SDS011;38763;53.096;6.062;2023-01-26T16:04:43;23.15;;;6.05;;
52898;SDS011;38763;53.096;6.062;2023-01-26T16:07:12;22.85;;;5.20;;
52898;SDS011;38763;53.096;6.062;2023-01-26T16:09:39;26.67;;;6.13;;
52898;SDS011;38763;53.096;6.062;2023-01-26T16:12:08;21.45;;;5.53;;
52898;SDS011;38763;53.096;6.062;2023-01-26T16:14:41;20.75;;;5.53;;
52898;SDS011;38763;53.096;6.062;2023-01-26T16:17:14;20.33;;;5.22;;
52898;SDS011;38763;53.096;6.062;2023-01-26T16:19:42;21.73;;;5.45;;
52898;SDS011;38763;53.096;6.062;2023-01-26T16:22:09;22.30;;;6.57;;